Terminal Aerodrome Forecast
Issued by NWS

Home | Current Version | Previous Version | Text Only | Print | Product List | Glossary On
Versions: 1 2 3 4 5 6 7 8 9 10 11 12 13 14 15 16 17 18
000
FTPA31 PHFO 260544
TAFHMK
TAF
PHMK 260544Z 2606/2706 01005KT P6SM FEW025 SCT045
     FM262000 03013G20KT P6SM FEW030 SCT045
     FM270500 04008KT P6SM FEW020=

USA.gov is the U.S. government's official web portal to all federal, state and local government web resources and services.